»·PEaware :: N212MH KSMX-KSFO

N212MH :: KSMX-KSFO

FLIGHT INFORMATION

Flight Status: Arrived
Operator: Privately registered:
United States
More flights under this callsign
Pilot: Erik A. (17503)
Aircraft: AERMACCHI WARRIOR
(F260)
More flights by this aircraft type
Origin: KSMX Santa Maria Pub/Capt Hancock
United States
Destination: KSFO San Francisco Intl
United States
More flights between these airports :: More routes between these airports
Route:
File this flight plan on PilotEdge
Remarks:
Altitude:
(Current/Filed)
8,500ft
Speed:
(Current/Filed)
0kts
Departed: 27-Sep-22 03:20 PM
Arrived: 27-Sep-22 04:39 PM
Distance/Time
Traveled:
188nm/1:19
Distance/Time
To Go:
Arrived

Flight Plot

Page will automatically refresh every two minutes.

Flight plan parsing failed; only flown route is shown


Map Options




Map Legend


Flown Route
Filed Route
Departure Airport
Arrival Airport
Navaid (VOR, NDB)
Fix

Horizontal Profiles

Position Reports

Time Latitude Longitude Heading Altitude Ground
Speed
27-Sep-22 15:08 34.891963 -120.455535 0 264ft 0kts
27-Sep-22 15:09 34.891963 -120.455535 0 264ft 0kts
27-Sep-22 15:10 34.891968 -120.455535 0 264ft 0kts
27-Sep-22 15:11 34.892599 -120.455046 71 264ft 6kts
27-Sep-22 15:12 34.892097 -120.453059 140 264ft 5kts
27-Sep-22 15:13 34.891681 -120.450725 90 264ft 9kts
27-Sep-22 15:14 34.891641 -120.447327 90 264ft 9kts
27-Sep-22 15:15 34.892052 -120.446347 45 264ft 0kts
27-Sep-22 15:16 34.892052 -120.446347 45 264ft 0kts
27-Sep-22 15:17 34.892052 -120.446347 45 264ft 0kts
27-Sep-22 15:18 34.892052 -120.446347 45 264ft 0kts
27-Sep-22 15:19 34.893548 -120.446923 314 264ft 47kts
27-Sep-22 15:20 34.912947 -120.466523 329 912ft 105kts
27-Sep-22 15:21 34.944328 -120.472634 359 1624ft 128kts
27-Sep-22 15:22 34.979317 -120.473013 355 2409ft 129kts
27-Sep-22 15:23 35.015406 -120.479698 345 3054ft 133kts
27-Sep-22 15:24 35.050892 -120.494355 338 3650ft 136kts
27-Sep-22 15:25 35.086495 -120.510452 342 4274ft 137kts
27-Sep-22 15:26 35.123836 -120.522959 351 4943ft 142kts
27-Sep-22 15:27 35.164051 -120.527177 355 5444ft 149kts
27-Sep-22 15:28 35.205871 -120.527365 0 5846ft 153kts
27-Sep-22 15:29 35.248317 -120.533972 350 6195ft 154kts
27-Sep-22 15:30 35.290625 -120.542984 350 6511ft 153kts
27-Sep-22 15:31 35.332613 -120.552284 350 6818ft 153kts
27-Sep-22 15:32 35.374257 -120.561477 350 7152ft 152kts
27-Sep-22 15:33 35.415562 -120.570655 350 7503ft 150kts
27-Sep-22 15:34 35.456424 -120.579474 350 7862ft 148kts
27-Sep-22 15:35 35.495698 -120.588210 349 8387ft 139kts
27-Sep-22 15:36 35.535561 -120.596835 350 8485ft 156kts
27-Sep-22 15:37 35.578171 -120.605741 350 8480ft 154kts
27-Sep-22 15:38 35.620164 -120.614927 350 8480ft 153kts
27-Sep-22 15:39 35.661608 -120.624090 350 8480ft 152kts
27-Sep-22 15:40 35.698952 -120.646746 329 8481ft 151kts
27-Sep-22 15:41 35.735039 -120.673750 328 8481ft 152kts
27-Sep-22 15:42 35.771157 -120.700975 328 8481ft 152kts
27-Sep-22 15:43 35.807192 -120.728253 328 8481ft 152kts
27-Sep-22 15:44 35.843190 -120.755522 328 8481ft 152kts
27-Sep-22 15:45 35.879217 -120.782830 328 8481ft 152kts
27-Sep-22 15:46 35.915323 -120.810224 328 8481ft 152kts
27-Sep-22 15:47 35.951426 -120.837674 328 8467ft 153kts
27-Sep-22 15:48 35.987374 -120.865003 328 8466ft 151kts
27-Sep-22 15:49 36.023359 -120.892407 328 8481ft 154kts
27-Sep-22 15:50 36.059947 -120.920314 328 8470ft 154kts
27-Sep-22 15:51 36.096458 -120.948145 328 8472ft 155kts
27-Sep-22 15:52 36.133094 -120.976139 327 8465ft 154kts
27-Sep-22 15:53 36.169459 -121.003934 327 8467ft 154kts
27-Sep-22 15:54 36.205757 -121.031765 327 8469ft 154kts
27-Sep-22 15:55 36.242258 -121.059767 327 8468ft 154kts
27-Sep-22 15:56 36.279136 -121.088023 327 8428ft 156kts
27-Sep-22 15:57 36.315882 -121.116271 327 8420ft 154kts
27-Sep-22 15:58 36.352321 -121.144306 327 8422ft 154kts
27-Sep-22 15:59 36.388732 -121.172368 327 8416ft 153kts
27-Sep-22 16:00 36.425265 -121.200537 327 8437ft 155kts
27-Sep-22 16:01 36.461952 -121.228829 327 8420ft 155kts
27-Sep-22 16:02 36.498376 -121.256999 327 8420ft 154kts
27-Sep-22 16:03 36.534986 -121.285324 327 8420ft 154kts
27-Sep-22 16:04 36.571514 -121.313608 327 8430ft 157kts
27-Sep-22 16:05 36.607885 -121.341805 326 8470ft 154kts
27-Sep-22 16:06 36.644613 -121.370294 327 8464ft 156kts
27-Sep-22 16:07 36.681312 -121.398822 327 8474ft 157kts
27-Sep-22 16:08 36.718668 -121.427823 327 8474ft 159kts
27-Sep-22 16:09 36.756016 -121.456984 327 8467ft 158kts
27-Sep-22 16:10 36.793213 -121.485981 327 8464ft 157kts
27-Sep-22 16:11 36.830018 -121.514732 327 8464ft 156kts
27-Sep-22 16:12 36.866800 -121.543484 326 8464ft 156kts
27-Sep-22 16:13 36.903616 -121.572297 326 8470ft 157kts
27-Sep-22 16:14 36.940660 -121.601332 326 8464ft 156kts
27-Sep-22 16:15 36.977767 -121.630386 326 8467ft 159kts
27-Sep-22 16:16 37.014952 -121.659618 326 8463ft 157kts
27-Sep-22 16:17 37.051829 -121.688580 325 8472ft 157kts
27-Sep-22 16:18 37.088851 -121.717734 325 8466ft 157kts
27-Sep-22 16:19 37.125878 -121.746927 325 8465ft 157kts
27-Sep-22 16:20 37.163056 -121.776262 325 8486ft 159kts
27-Sep-22 16:21 37.196335 -121.802560 325 8475ft 159kts
27-Sep-22 16:22 37.228279 -121.827681 326 8251ft 167kts
27-Sep-22 16:23 37.257294 -121.850458 325 8048ft 166kts
27-Sep-22 16:24 37.281942 -121.870210 325 7794ft 166kts
27-Sep-22 16:25 37.311745 -121.894093 325 7412ft 164kts
27-Sep-22 16:26 37.341288 -121.917722 325 7103ft 163kts
27-Sep-22 16:27 37.386073 -121.953678 325 6561ft 162kts
27-Sep-22 16:28 37.422795 -121.986932 321 6066ft 166kts
27-Sep-22 16:29 37.466188 -122.027511 321 5510ft 169kts
27-Sep-22 16:30 37.496582 -122.073627 297 5019ft 165kts
27-Sep-22 16:31 37.517927 -122.125803 296 4399ft 173kts
27-Sep-22 16:32 37.542361 -122.177818 297 3566ft 173kts
27-Sep-22 16:33 37.563652 -122.233319 294 2392ft 176kts
27-Sep-22 16:34 37.584539 -122.286495 297 1140ft 154kts
27-Sep-22 16:35 37.600465 -122.325738 298 627ft 106kts
27-Sep-22 16:36 37.610829 -122.350667 298 109ft 73kts
27-Sep-22 16:37 37.617909 -122.367560 296 13ft 50kts
27-Sep-22 16:38 37.622353 -122.378134 297 11ft 36kts
27-Sep-22 16:39 37.625680 -122.383743 20 8ft 9kts
27-Sep-22 16:40 37.626321 -122.383061 31 8ft 10kts
27-Sep-22 16:41 37.627934 -122.383433 296 8ft 0kts
27-Sep-22 16:42 37.627934 -122.383433 296 8ft 0kts
27-Sep-22 16:43 37.627934 -122.383433 296 8ft 0kts
27-Sep-22 16:44 37.627934 -122.383433 296 8ft 0kts
27-Sep-22 16:45 37.627934 -122.383433 296 8ft 0kts
27-Sep-22 16:46 37.627934 -122.383433 296 8ft 0kts
27-Sep-22 16:47 37.627934 -122.383433 296 8ft 0kts
27-Sep-22 16:48 37.627934 -122.383433 296 8ft 0kts
27-Sep-22 16:49 37.627934 -122.383433 296 8ft 0kts
27-Sep-22 16:50 37.627934 -122.383433 296 8ft 0kts
27-Sep-22 16:51 37.627934 -122.383433 296 8ft 0kts
27-Sep-22 16:52 37.627934 -122.383433 296 8ft 0kts

Navigation Log

Ident Type
Flight plan parsing failed, navigation log unavailable